Flight Track Log - Related Links

Times and Time Zones

All times are in EST time to prevent confusion due to time zone crossing. See the XOJ552 flight status page for this flight to view local times or setup timezone preferences in your user account.

Time Position Orientation Groundspeed Altitude Reporting Facility
EST Latitude Longitude Course Direction KTS MPH feet Rate Location/Type
Tue 08:42:59 PM 38.8833 -77.5833 229° Southwest 204 235 4,200  Level Potomac TRACON
Tue 08:43:59 PM 38.8519 -77.6547 241° Southwest 245 282 5,600 1,412 Climbing Washington Center
Tue 08:44:58 PM 38.7828 -77.6822 197° South 262 302 7,000 1,650 Climbing Washington Center
Tue 08:45:59 PM 38.7161 -77.6775 177° South 258 297 8,900 2,579 Climbing Washington Center
Tue 08:46:59 PM 38.6506 -77.7211 207° Southwest 267 307 12,200 3,814 Climbing Washington Center
Tue 08:47:00 PM 38.5844 -77.5220 190° South  Level FlightAware Approximate
Tue 08:47:57 PM 38.5853 -77.7669 209° Southwest 267 307 16,400  Level Washington Center
Tue 08:48:58 PM 38.5219 -77.8103 208° Southwest 272 313 20,100 2,281 Climbing Washington Center
Tue 08:49:58 PM 38.4522 -77.8586 209° Southwest 279 321 21,000 1,300 Climbing Washington Center
Tue 08:50:58 PM 38.3950 -77.8964 207° Southwest 284 327 22,700 1,488 Climbing Washington Center
Tue 08:51:59 PM 38.3064 -77.9572 208° Southwest 295 339 24,000 655 Climbing Washington Center
Tue 08:52:57 PM 38.2322 -78.0078 208° Southwest 300 345 24,000  Level Washington Center
Tue 08:53:59 PM 38.1542 -78.0608 208° Southwest 312 359 24,000  Level Washington Center
Tue 08:54:57 PM 38.0861 -78.1217 215° Southwest 312 359 24,000  Level Washington Center
Tue 08:55:58 PM 38.0158 -78.1878 217° Southwest 312 359 24,000  Level Washington Center
Tue 08:56:56 PM 37.9606 -78.2414 217° Southwest 300 345 24,000  Level Washington Center
Tue 08:57:58 PM 37.8922 -78.3072 217° Southwest 305 351 24,000  Level Washington Center
Tue 08:58:57 PM 37.8261 -78.3706 217° Southwest 305 351 24,000  Level Washington Center
Tue 08:59:57 PM 37.7581 -78.4339 216° Southwest 305 351 24,000  Level Washington Center
Tue 09:00:57 PM 37.6811 -78.5019 215° Southwest 305 351 24,000  Level Washington Center
Tue 09:01:59 PM 37.6131 -78.5647 216° Southwest 305 351 24,000  Level Washington Center
Tue 09:02:57 PM 37.5447 -78.6275 216° Southwest 305 351 24,000 -51 Level Washington Center
Tue 09:03:56 PM 37.4764 -78.6903 216° Southwest 305 351 23,900 -595 Descending Washington Center
Tue 09:04:58 PM 37.4078 -78.7528 216° Southwest 305 351 22,800 -927 Descending Washington Center
Tue 09:05:59 PM 37.3417 -78.8128 216° Southwest 305 351 22,000 -397 Descending Washington Center
Tue 09:06:59 PM 37.2817 -78.8678 216° Southwest 305 351 22,000  Level Washington Center
Tue 09:07:57 PM 37.2131 -78.9325 217° Southwest 305 351 22,000  Level Washington Center
Tue 09:08:59 PM 37.1428 -78.9919 214° Southwest 310 357 22,000  Level Washington Center
Tue 09:09:57 PM 37.0719 -79.0567 216° Southwest 315 362 22,000  Level Washington Center
Tue 09:10:58 PM 37.0033 -79.1211 217° Southwest 315 362 22,000  Level Washington Center
Tue 09:11:56 PM 36.9347 -79.1831 216° Southwest 315 362 22,000  Level Washington Center
Tue 09:12:58 PM 36.8661 -79.2422 215° Southwest 315 362 22,000 -341 Level Washington Center
Tue 09:13:59 PM 36.7972 -79.3089 218° Southwest 315 362 21,300 -689 Descending Washington Center
Tue 09:15:00 PM 36.7345 -79.3669 217° Southwest  Level FlightAware Approximate
Tue 09:22:00 PM 36.3004 -79.7539 215° Southwest  Level FlightAware Approximate
Tue 09:23:00 PM 36.2390 -79.8110 219° Southwest  Level FlightAware Approximate
Tue 09:24:00 PM 36.1772 -79.8671 211° Southwest  Level FlightAware Approximate
Tue 09:25:00 PM 36.1135 -79.9199 219° Southwest  Level FlightAware Approximate
Tue 09:26:00 PM 36.1000 -79.9333 219° Southwest  Level FlightAware Approximate
Tue 09:27:00 PM 36.1013 -79.9411 219° Southwest  Level Estimated
Tue 09:28:00 PM 36.1000 -79.9333 219° Southwest  Level FlightAware Approximate
Tue 09:29:00 PM 36.1013 -79.9411 219° Southwest  Level Estimated
Tue 09:30:00 PM 36.1000 -79.9333 219° Southwest  Level FlightAware Approximate

Login

Don't have an account? Register now (free) for customized features, flight alerts, and more!